Station Historical Data
Daily Summary for March 8, 2017 Units:  Metric    English   Both
« Previous Day
Next Day »
Daily Weekly Monthly Yearly Custom
  High: Low: Average:
Temperature: 9.6 °C 2.7 °C 6.2 °C
Dew Point: 1.3 °C -5.1 °C -2 °C
Humidity: 83% 37% 57%
Wind Speed: 49.9km/h 0km/h 16.1km/h
Wind Gust: 86.9km/h - -
Wind- - WSW
Pressure: 1013.8 hPa 1007 hPa -
Precipitation: 0 mm    
Historical Graphs
 
 
Tabular Data for March 8, 2017
Time Temperature Dew Point Pressure Wind Wind Speed Wind Gust Humidity Rainfall Rate (Hourly)
00:04 6 °C 1.3 °C 1012.8 hPa SW 9.7 km/h 19.3 km/h 72% 0 mm
00:09 6.1 °C 1.2 °C 1012.8 hPa SW 8 km/h 19.3 km/h 71% 0 mm
00:14 6.3 °C 1.2 °C 1013.1 hPa WSW 9.7 km/h 27.4 km/h 70% 0 mm
00:19 6.7 °C -0.3 °C 1013.1 hPa WNW 11.3 km/h 32.2 km/h 61% 0 mm
00:24 7 °C 0 °C 1013.1 hPa SW 9.7 km/h 16.1 km/h 61% 0 mm
00:29 6.9 °C 0.2 °C 1013.4 hPa WSW 14.5 km/h 24.1 km/h 62% 0 mm
00:34 6.9 °C -0.1 °C 1013.8 hPa SSW 11.3 km/h 25.7 km/h 61% 0 mm
00:39 6.9 °C -0.1 °C 1013.4 hPa WSW 12.9 km/h 25.7 km/h 61% 0 mm
00:44 6.8 °C -0.2 °C 1012.8 hPa WSW 9.7 km/h 20.9 km/h 61% 0 mm
00:49 6.8 °C -0.2 °C 1012.4 hPa West 8 km/h 14.5 km/h 61% 0 mm
00:54 6.7 °C -0.3 °C 1013.1 hPa WSW 4.8 km/h 9.7 km/h 61% 0 mm
00:59 6.7 °C -0.5 °C 1013.1 hPa West 3.2 km/h 12.9 km/h 60% 0 mm
01:04 6.8 °C -0.7 °C 1013.4 hPa WSW 4.8 km/h 12.9 km/h 59% 0 mm
01:09 6.7 °C -0.5 °C 1013.4 hPa WSW 3.2 km/h 9.7 km/h 60% 0 mm
01:14 6.6 °C -0.7 °C 1013.8 hPa SW 4.8 km/h 9.7 km/h 60% 0 mm
01:19 6.4 °C -0.1 °C 1013.8 hPa SW 3.2 km/h 9.7 km/h 63% 0 mm
01:24 6.3 °C -0.3 °C 1013.4 hPa SW 3.2 km/h 6.4 km/h 63% 0 mm
01:29 6.2 °C -0.3 °C 1013.1 hPa SSW 3.2 km/h 8 km/h 63% 0 mm
01:34 6.1 °C -0.2 °C 1012.8 hPa SSW 3.2 km/h 8 km/h 64% 0 mm
01:39 6 °C -0.1 °C 1012.8 hPa SSW 1.6 km/h 8 km/h 65% 0 mm
01:44 5.8 °C 0.1 °C 1012.8 hPa Calm   1.6 km/h 67% 0 mm
01:49 5.7 °C 0.3 °C 1012.8 hPa Calm   1.6 km/h 68% 0 mm
01:54 5.8 °C -0.1 °C 1012.4 hPa Calm     66% 0 mm
01:59 5.7 °C 0 °C 1012.8 hPa WSW 3.2 km/h 4.8 km/h 67% 0 mm
02:04 5.6 °C -0.1 °C 1012.4 hPa West 1.6 km/h 6.4 km/h 67% 0 mm
02:09 5.6 °C -0.1 °C 1012.8 hPa WSW 3.2 km/h 6.4 km/h 67% 0 mm
02:14 5.6 °C -0.1 °C 1012.8 hPa WSW 8 km/h 11.3 km/h 67% 0 mm
02:19 5.7 °C 0 °C 1012.8 hPa SW 1.6 km/h 11.3 km/h 67% 0 mm
02:24 5.7 °C 0 °C 1013.1 hPa SW 6.4 km/h 16.1 km/h 67% 0 mm
02:29 5.6 °C 0.3 °C 1013.4 hPa SW 8 km/h 16.1 km/h 69% 0 mm
02:34 5.3 °C 0.4 °C 1013.1 hPa SW 8 km/h 16.1 km/h 71% 0 mm
02:39 5.1 °C 0.5 °C 1013.4 hPa SW 8 km/h 17.7 km/h 72% 0 mm
02:44 4.9 °C 0.5 °C 1013.8 hPa SW 9.7 km/h 20.9 km/h 73% 0 mm
02:49 4.8 °C 0.7 °C 1013.8 hPa WSW 9.7 km/h 20.9 km/h 75% 0 mm
02:54 4.6 °C 0.7 °C 1013.8 hPa South 8 km/h 20.9 km/h 76% 0 mm
02:59 4.4 °C 0.7 °C 1013.4 hPa SW 8 km/h 17.7 km/h 77% 0 mm
03:04 4.2 °C 0.7 °C 1013.1 hPa SW 11.3 km/h 19.3 km/h 78% 0 mm
03:09 3.9 °C 0.6 °C 1013.4 hPa WSW 14.5 km/h 20.9 km/h 79% 0 mm
03:14 3.7 °C 0.3 °C 1013.8 hPa SSW 11.3 km/h 24.1 km/h 79% 0 mm
03:19 3.5 °C 0.4 °C 1013.8 hPa SW 12.9 km/h 17.7 km/h 80% 0 mm
03:24 3.4 °C 0.3 °C 1013.8 hPa SW 8 km/h 17.7 km/h 80% 0 mm
03:29 3.2 °C 0.3 °C 1013.8 hPa SW 8 km/h 17.7 km/h 81% 0 mm
03:34 3.1 °C 0.3 °C 1013.8 hPa SW 8 km/h 16.1 km/h 82% 0 mm
03:39 2.9 °C 0.2 °C 1013.8 hPa SW 8 km/h 16.1 km/h 82% 0 mm
03:44 2.8 °C 0.2 °C 1013.4 hPa SW 8 km/h 16.1 km/h 83% 0 mm
03:49 2.8 °C 0.2 °C 1013.8 hPa SW 8 km/h 16.1 km/h 83% 0 mm
03:54 2.7 °C 0.1 °C 1013.8 hPa SW 8 km/h 14.5 km/h 83% 0 mm
03:59 2.7 °C -0.1 °C 1013.4 hPa SW 6.4 km/h 14.5 km/h 82% 0 mm
04:04 2.8 °C 0 °C 1013.8 hPa SW 6.4 km/h 12.9 km/h 82% 0 mm
04:09 2.7 °C -0.2 °C 1013.8 hPa SW 4.8 km/h 11.3 km/h 81% 0 mm
04:14 2.7 °C -0.2 °C 1013.8 hPa SW 4.8 km/h 12.9 km/h 81% 0 mm
04:19 2.7 °C -0.2 °C 1013.8 hPa WSW 8 km/h 11.3 km/h 81% 0 mm
04:24 2.7 °C -0.4 °C 1013.4 hPa WSW 4.8 km/h 12.9 km/h 80% 0 mm
04:29 2.7 °C -0.4 °C 1013.4 hPa WSW 4.8 km/h 12.9 km/h 80% 0 mm
04:34 2.7 °C -0.6 °C 1013.8 hPa SW 11.3 km/h 11.3 km/h 79% 0 mm
04:39 2.8 °C -0.4 °C 1013.8 hPa SW 8 km/h 17.7 km/h 79% 0 mm
04:44 2.9 °C -0.6 °C 1013.8 hPa SW 8 km/h 17.7 km/h 78% 0 mm
04:49 2.9 °C -0.5 °C 1013.4 hPa SW 8 km/h 16.1 km/h 78% 0 mm
04:54 3.1 °C -0.6 °C 1013.4 hPa SW 8 km/h 16.1 km/h 77% 0 mm
04:59 3.2 °C -0.8 °C 1013.4 hPa SW 8 km/h 17.7 km/h 75% 0 mm
05:04 3.4 °C -0.8 °C 1013.4 hPa SW 9.7 km/h 20.9 km/h 74% 0 mm
05:09 3.5 °C -0.7 °C 1013.4 hPa WSW 17.7 km/h 24.1 km/h 74% 0 mm
05:14 3.6 °C -0.9 °C 1013.4 hPa WSW 8 km/h 24.1 km/h 72% 0 mm
05:19 3.7 °C -1.1 °C 1013.1 hPa SW 9.7 km/h 25.7 km/h 71% 0 mm
05:24 3.8 °C -1.2 °C 1013.1 hPa South 9.7 km/h 20.9 km/h 70% 0 mm
05:29 3.9 °C -1.1 °C 1013.1 hPa South 8 km/h 22.5 km/h 70% 0 mm
05:34 3.9 °C -1.3 °C 1013.1 hPa SW 6.4 km/h 16.1 km/h 69% 0 mm
05:39 3.9 °C -1.3 °C 1013.1 hPa SW 8 km/h 20.9 km/h 69% 0 mm
05:44 4 °C -1.4 °C 1013.1 hPa SW 9.7 km/h 22.5 km/h 68% 0 mm
05:49 4 °C -1.6 °C 1013.1 hPa SW 9.7 km/h 22.5 km/h 67% 0 mm
05:54 4 °C -1.8 °C 1012.8 hPa SW 8 km/h 22.5 km/h 66% 0 mm
05:59 4.1 °C -1.7 °C 1013.1 hPa SW 8 km/h 16.1 km/h 66% 0 mm
06:04 4.1 °C -1.9 °C 1013.1 hPa SW 8 km/h 12.9 km/h 65% 0 mm
06:09 4 °C -2 °C 1013.1 hPa SW 8 km/h 19.3 km/h 65% 0 mm
06:14 4.1 °C -2.2 °C 1013.1 hPa South 8 km/h 12.9 km/h 64% 0 mm
06:19 3.9 °C -2.3 °C 1013.1 hPa SW 4.8 km/h 14.5 km/h 64% 0 mm
06:24 3.8 °C -2.4 °C 1012.8 hPa SSW 8 km/h 12.9 km/h 64% 0 mm
06:29 3.7 °C -2.5 °C 1012.8 hPa SSW 3.2 km/h 12.9 km/h 64% 0 mm
06:34 3.6 °C -2.6 °C 1012.8 hPa SSW 6.4 km/h 11.3 km/h 64% 0 mm
06:39 3.7 °C -2.5 °C 1012.8 hPa SSW 6.4 km/h 12.9 km/h 64% 0 mm
06:44 3.6 °C -2.6 °C 1012.8 hPa SSW 6.4 km/h 11.3 km/h 64% 0 mm
06:49 3.3 °C -2.6 °C 1012.8 hPa SSW 6.4 km/h 11.3 km/h 65% 0 mm
06:54 3.2 °C -2.6 °C 1012.8 hPa South 6.4 km/h 16.1 km/h 66% 0 mm
06:59 3.2 °C -2.4 °C 1012.8 hPa SSW 6.4 km/h 16.1 km/h 67% 0 mm
07:04 3.2 °C -2.3 °C 1012.8 hPa SSW 6.4 km/h 12.9 km/h 67% 0 mm
07:09 3.5 °C -2.1 °C 1012.8 hPa SSW 6.4 km/h 12.9 km/h 67% 0 mm
07:14 3.7 °C -1.9 °C 1012.8 hPa SSW 6.4 km/h 14.5 km/h 67% 0 mm
07:19 3.8 °C -1.7 °C 1012.8 hPa SSW 6.4 km/h 14.5 km/h 67% 0 mm
07:24 4.1 °C -1.7 °C 1012.4 hPa SSW 9.7 km/h 11.3 km/h 66% 0 mm
07:29 4.3 °C -1.3 °C 1012.4 hPa SSW 12.9 km/h 12.9 km/h 67% 0 mm
07:34 4.4 °C -1.2 °C 1012.4 hPa SSW 6.4 km/h 14.5 km/h 67% 0 mm
07:39 4.4 °C -1.2 °C 1012.4 hPa South 6.4 km/h 14.5 km/h 67% 0 mm
07:44 4.5 °C -1.3 °C 1012.4 hPa SSW 4.8 km/h 14.5 km/h 66% 0 mm
07:49 4.6 °C -1.3 °C 1012.4 hPa SSW 6.4 km/h 12.9 km/h 66% 0 mm
07:54 4.8 °C -1.1 °C 1012.1 hPa SSW 6.4 km/h 12.9 km/h 66% 0 mm
07:59 5.1 °C -1.2 °C 1012.1 hPa SSW 6.4 km/h 12.9 km/h 64% 0 mm
08:04 5.4 °C -1.1 °C 1012.1 hPa SSW 8 km/h 19.3 km/h 63% 0 mm
08:09 5.7 °C -1.3 °C 1012.1 hPa SSW 9.7 km/h 25.7 km/h 61% 0 mm
08:14 5.9 °C -1 °C 1012.1 hPa SSW 11.3 km/h 25.7 km/h 61% 0 mm
08:19 6.4 °C -1.1 °C 1011.7 hPa SSW 11.3 km/h 24.1 km/h 59% 0 mm
08:24 6.8 °C -0.9 °C 1011.7 hPa SSW 11.3 km/h 27.4 km/h 58% 0 mm
08:29 6.7 °C -1.2 °C 1011.7 hPa SSW 12.9 km/h 30.6 km/h 57% 0 mm
08:34 6.9 °C -0.8 °C 1011.7 hPa SW 12.9 km/h 24.1 km/h 58% 0 mm
08:39 6.9 °C -1 °C 1011.7 hPa South 11.3 km/h 29 km/h 57% 0 mm
08:44 7 °C -0.9 °C 1011.7 hPa WSW 20.9 km/h 32.2 km/h 57% 0 mm
08:49 7.1 °C -1.1 °C 1011.7 hPa SW 24.1 km/h 37 km/h 56% 0 mm
08:54 7 °C -1.4 °C 1011.7 hPa SW 17.7 km/h 37 km/h 55% 0 mm
08:59 6.9 °C -1.6 °C 1011.7 hPa SW 17.7 km/h 37 km/h 55% 0 mm
09:04 6.8 °C -1.3 °C 1011.7 hPa WSW 17.7 km/h 38.6 km/h 56% 0 mm
09:09 6.8 °C -1.4 °C 1011.7 hPa SW 6.4 km/h 37 km/h 56% 0 mm
09:14 6.6 °C -1.1 °C 1011.7 hPa WSW 17.7 km/h 45.1 km/h 58% 0 mm
09:19 6.9 °C -0.8 °C 1011.7 hPa SSW 11.3 km/h 35.4 km/h 58% 0 mm
09:24 7.1 °C -0.4 °C 1011.7 hPa SW 20.9 km/h 49.9 km/h 59% 0 mm
09:29 6.8 °C -0.7 °C 1011.4 hPa WSW 20.9 km/h 49.9 km/h 59% 0 mm
09:34 6.4 °C -0.8 °C 1011.4 hPa WSW 20.9 km/h 46.7 km/h 60% 0 mm
09:39 6.3 °C -0.7 °C 1011.1 hPa SW 33.8 km/h 40.2 km/h 61% 0 mm
09:44 6.7 °C -0.3 °C 1011.1 hPa SSW 27.4 km/h 38.6 km/h 61% 0 mm
09:49 7 °C -0.2 °C 1011.1 hPa NW 29 km/h 38.6 km/h 60% 0 mm
09:54 7.1 °C -0.1 °C 1010.7 hPa SW 20.9 km/h 38.6 km/h 60% 0 mm
09:59 7.3 °C 0 °C 1010.7 hPa SW 12.9 km/h 38.6 km/h 60% 0 mm
10:04 7.2 °C -0.1 °C 1010.7 hPa West 40.2 km/h 43.5 km/h 60% 0 mm
10:09 7.2 °C -0.1 °C 1010.7 hPa SW 30.6 km/h 40.2 km/h 60% 0 mm
10:14 7.2 °C 0.2 °C 1010.7 hPa SSW 19.3 km/h 35.4 km/h 61% 0 mm
10:19 7.3 °C 0.3 °C 1010.7 hPa SW 17.7 km/h 43.5 km/h 61% 0 mm
10:24 7.6 °C 0.1 °C 1010.7 hPa SW 19.3 km/h 43.5 km/h 59% 0 mm
10:29 7.6 °C -0.4 °C 1010.4 hPa SW 20.9 km/h 43.5 km/h 57% 0 mm
10:34 7.7 °C -0.5 °C 1010.4 hPa SW 24.1 km/h 43.5 km/h 56% 0 mm
10:39 7.9 °C -0.6 °C 1010.4 hPa SW 24.1 km/h 48.3 km/h 55% 0 mm
10:44 8.1 °C -0.9 °C 1010.4 hPa South 22.5 km/h 48.3 km/h 53% 0 mm
10:49 8.4 °C -0.6 °C 1010 hPa SW 30.6 km/h 40.2 km/h 53% 0 mm
10:54 8.4 °C -1.1 °C 1010 hPa SW 30.6 km/h 49.9 km/h 51% 0 mm
10:59 8.5 °C -1.1 °C 1010 hPa SW 24.1 km/h 49.9 km/h 51% 0 mm
11:04 8.8 °C -1.1 °C 1010 hPa SW 22.5 km/h 38.6 km/h 50% 0 mm
11:09 8.7 °C -1.4 °C 1010 hPa SW 24.1 km/h 54.7 km/h 49% 0 mm
11:14 8.9 °C -1.3 °C 1010 hPa SSW 17.7 km/h 45.1 km/h 49% 0 mm
11:19 9.1 °C -1.4 °C 1009.7 hPa WSW 19.3 km/h 41.8 km/h 48% 0 mm
11:24 9.2 °C -1.3 °C 1009.7 hPa WSW 14.5 km/h 41.8 km/h 48% 0 mm
11:29 9.3 °C -2.4 °C 1009.7 hPa WNW 16.1 km/h 46.7 km/h 44% 0 mm
11:34 9.2 °C -2.4 °C 1009.7 hPa SW 24.1 km/h 46.7 km/h 44% 0 mm
11:39 9.3 °C -2.7 °C 1009.7 hPa SW 24.1 km/h 46.7 km/h 43% 0 mm
11:44 9.3 °C -2.3 °C 1009.7 hPa SW 24.1 km/h 43.5 km/h 44% 0 mm
11:49 9.5 °C -3.4 °C 1009.7 hPa SW 24.1 km/h 43.5 km/h 40% 0 mm
11:54 9.5 °C -3.1 °C 1009.7 hPa SW 20.9 km/h 45.1 km/h 41% 0 mm
11:59 9.4 °C -3.2 °C 1009.4 hPa SW 35.4 km/h 46.7 km/h 41% 0 mm
12:04 9.4 °C -2.8 °C 1009.4 hPa SW 24.1 km/h 46.7 km/h 42% 0 mm
12:09 9.6 °C -3.7 °C 1009.4 hPa SW 22.5 km/h 40.2 km/h 39% 0 mm
12:14 9.5 °C -3.4 °C 1009.4 hPa SW 29 km/h 48.3 km/h 40% 0 mm
12:19 9.2 °C -4.4 °C 1009 hPa SW 12.9 km/h 54.7 km/h 38% 0 mm
12:24 9.2 °C -4.4 °C 1009 hPa SW 37 km/h 51.5 km/h 38% 0 mm
12:29 9.3 °C -4.7 °C 1009 hPa SSE 24.1 km/h 59.5 km/h 37% 0 mm
12:34 9.1 °C -4.5 °C 1009 hPa SW 29 km/h 59.5 km/h 38% 0 mm
12:39 9.1 °C -4.6 °C 1009 hPa SW 30.6 km/h 56.3 km/h 38% 0 mm
12:44 9.2 °C -4.1 °C 1008.7 hPa SW 27.4 km/h 48.3 km/h 39% 0 mm
12:49 9.2 °C -3.8 °C 1008.7 hPa SW 25.7 km/h 46.7 km/h 40% 0 mm
12:54 9.2 °C -3.7 °C 1008.7 hPa WSW 30.6 km/h 53.1 km/h 40% 0 mm
12:59 9.2 °C -4.4 °C 1008.7 hPa WSW 30.6 km/h 48.3 km/h 38% 0 mm
13:04 9.3 °C -4 °C 1008.7 hPa SW 17.7 km/h 43.5 km/h 39% 0 mm
13:09 9.6 °C -3.7 °C 1008.7 hPa SW 24.1 km/h 43.5 km/h 39% 0 mm
13:14 9.5 °C -4.1 °C 1008.4 hPa WSW 22.5 km/h 48.3 km/h 38% 0 mm
13:19 9.6 °C -4.1 °C 1008.4 hPa WSW 24.1 km/h 48.3 km/h 38% 0 mm
13:24 9.5 °C -4.1 °C 1008.4 hPa WSW 27.4 km/h 57.9 km/h 38% 0 mm
13:29 9.6 °C -4.1 °C 1008.4 hPa WSW 29 km/h 62.8 km/h 38% 0 mm
13:34 9.4 °C -3.8 °C 1008 hPa WSW 20.9 km/h 54.7 km/h 39% 0 mm
13:39 9.4 °C -3.8 °C 1008 hPa WSW 35.4 km/h 54.7 km/h 39% 0 mm
13:44 9.4 °C -3.8 °C 1008.4 hPa WSW 29 km/h 54.7 km/h 39% 0 mm
13:49 9.4 °C -3.6 °C 1008 hPa WSW 29 km/h 48.3 km/h 40% 0 mm
13:54 9.2 °C -4.1 °C 1008 hPa WSW 32.2 km/h 59.5 km/h 39% 0 mm
13:59 9.2 °C -4.1 °C 1008.4 hPa WSW 35.4 km/h 62.8 km/h 39% 0 mm
14:04 9.2 °C -4.1 °C 1008 hPa SW 49.9 km/h 59.5 km/h 39% 0 mm
14:09 9.3 °C -3.3 °C 1007.7 hPa SW 33.8 km/h 59.5 km/h 41% 0 mm
14:14 9.2 °C -3.4 °C 1008 hPa WSW 29 km/h 59.5 km/h 41% 0 mm
14:19 9.2 °C -3.4 °C 1008 hPa WSW 32.2 km/h 86.9 km/h 41% 0 mm
14:24 9.2 °C -3.4 °C 1007.7 hPa SW 30.6 km/h 57.9 km/h 41% 0 mm
14:29 9.2 °C -3.4 °C 1007.7 hPa West 29 km/h 53.1 km/h 41% 0 mm
14:34 9.1 °C -3.5 °C 1007.3 hPa SW 30.6 km/h 57.9 km/h 41% 0 mm
14:39 9.1 °C -3.2 °C 1007.7 hPa WSW 49.9 km/h 70.8 km/h 42% 0 mm
14:44 8.9 °C -3.3 °C 1007.7 hPa SW 30.6 km/h 64.4 km/h 42% 0 mm
14:49 9 °C -3.2 °C 1007.7 hPa WSW 30.6 km/h 64.4 km/h 42% 0 mm
14:54 9.1 °C -2.9 °C 1007.3 hPa WSW 29 km/h 51.5 km/h 43% 0 mm
14:59 8.9 °C -3 °C 1007.3 hPa WSW 30.6 km/h 56.3 km/h 43% 0 mm
15:04 8.9 °C -3 °C 1007.3 hPa WSW 32.2 km/h 56.3 km/h 43% 0 mm
15:09 8.9 °C -3.1 °C 1007.3 hPa WSW 30.6 km/h 62.8 km/h 43% 0 mm
15:14 8.8 °C -2.8 °C 1007.3 hPa WSW 24.1 km/h 54.7 km/h 44% 0 mm
15:19 8.8 °C -3.1 °C 1007.3 hPa West 41.8 km/h 66 km/h 43% 0 mm
15:24 8.8 °C -2.8 °C 1007.3 hPa SW 17.7 km/h 51.5 km/h 44% 0 mm
15:29 8.9 °C -3.1 °C 1007.3 hPa WSW 22.5 km/h 54.7 km/h 43% 0 mm
15:34 8.7 °C -2.9 °C 1007 hPa WSW 27.4 km/h 51.5 km/h 44% 0 mm
15:39 8.8 °C -2.8 °C 1007.3 hPa WNW 24.1 km/h 56.3 km/h 44% 0 mm
15:44 8.6 °C -2.7 °C 1007.3 hPa WNW 17.7 km/h 43.5 km/h 45% 0 mm
15:49 8.4 °C -2.6 °C 1007 hPa SW 30.6 km/h 49.9 km/h 46% 0 mm
15:54 8.5 °C -2.8 °C 1007.3 hPa West 29 km/h 53.1 km/h 45% 0 mm
15:59 8.6 °C -2.7 °C 1007.3 hPa WSW 27.4 km/h 53.1 km/h 45% 0 mm
16:04 8.3 °C -2.7 °C 1007.3 hPa WSW 24.1 km/h 53.1 km/h 46% 0 mm
16:09 8.2 °C -2.7 °C 1007.3 hPa WSW 24.1 km/h 53.1 km/h 46% 0 mm
16:14 8.5 °C -2.8 °C 1007 hPa WSW 25.7 km/h 56.3 km/h 45% 0 mm
16:19 8.5 °C -3.1 °C 1007.3 hPa WSW 27.4 km/h 56.3 km/h 44% 0 mm
16:24 8.3 °C -2.9 °C 1007.3 hPa WSW 16.1 km/h 54.7 km/h 45% 0 mm
16:29 8.1 °C -2.9 °C 1007.3 hPa WSW 25.7 km/h 54.7 km/h 46% 0 mm
16:34 8.3 °C -2.7 °C 1007.3 hPa WSW 24.1 km/h 54.7 km/h 46% 0 mm
16:39 8.2 °C -2.7 °C 1007 hPa West 16.1 km/h 49.9 km/h 46% 0 mm
16:44 8.1 °C -2.8 °C 1007 hPa West 19.3 km/h 54.7 km/h 46% 0 mm
16:49 7.9 °C -2.7 °C 1007.3 hPa WSW 20.9 km/h 56.3 km/h 47% 0 mm
16:54 8 °C -2.9 °C 1007.3 hPa WSW 38.6 km/h 46.7 km/h 46% 0 mm
16:59 8 °C -2.9 °C 1007.3 hPa WSW 29 km/h 45.1 km/h 46% 0 mm
17:04 7.9 °C -3.3 °C 1007.3 hPa WSW 25.7 km/h 54.7 km/h 45% 0 mm
17:09 8.1 °C -3.8 °C 1007.3 hPa WSW 29 km/h 57.9 km/h 43% 0 mm
17:14 8.1 °C -3.5 °C 1007.3 hPa WSW 29 km/h 57.9 km/h 44% 0 mm
17:19 8.1 °C -3.8 °C 1007.3 hPa WSW 16.1 km/h 46.7 km/h 43% 0 mm
17:24 8.1 °C -3.8 °C 1007.3 hPa WSW 30.6 km/h 56.3 km/h 43% 0 mm
17:29 8 °C -3.6 °C 1007.3 hPa WSW 30.6 km/h 56.3 km/h 44% 0 mm
17:34 7.8 °C -3.4 °C 1007.7 hPa WSW 29 km/h 56.3 km/h 45% 0 mm
17:39 7.7 °C -3.5 °C 1007.7 hPa South 41.8 km/h 46.7 km/h 45% 0 mm
17:44 7.6 °C -3.9 °C 1008 hPa WSW 32.2 km/h 49.9 km/h 44% 0 mm
17:49 7.4 °C -3.7 °C 1007.7 hPa WSW 19.3 km/h 48.3 km/h 45% 0 mm
17:54 7.2 °C -3.4 °C 1008.4 hPa West 30.6 km/h 46.7 km/h 47% 0 mm
17:59 6.9 °C -3.3 °C 1008.4 hPa West 46.7 km/h 46.7 km/h 48% 0 mm
18:04 6.7 °C -3.3 °C 1008.4 hPa West 12.9 km/h 35.4 km/h 49% 0 mm
18:09 6.6 °C -3.4 °C 1008.7 hPa WSW 20.9 km/h 46.7 km/h 49% 0 mm
18:14 6.6 °C -3.4 °C 1008.4 hPa WSW 22.5 km/h 45.1 km/h 49% 0 mm
18:19 6.8 °C -4.3 °C 1008.7 hPa WSW 20.9 km/h 51.5 km/h 45% 0 mm
18:24 7 °C -5.1 °C 1008.7 hPa WSW 20.9 km/h 51.5 km/h 42% 0 mm
18:29 7.2 °C -4.6 °C 1009 hPa WSW 20.9 km/h 46.7 km/h 43% 0 mm
18:34 7 °C -4.4 °C 1009 hPa WSW 20.9 km/h 41.8 km/h 44% 0 mm
18:39 7 °C -4.7 °C 1009 hPa West 24.1 km/h 35.4 km/h 43% 0 mm
18:44 6.9 °C -4.5 °C 1009 hPa West 11.3 km/h 30.6 km/h 44% 0 mm
18:49 6.7 °C -4.1 °C 1009.4 hPa WSW 16.1 km/h 30.6 km/h 46% 0 mm
18:54 6.6 °C -4.5 °C 1009.4 hPa SW 16.1 km/h 35.4 km/h 45% 0 mm
18:59 6.6 °C -4.2 °C 1009.4 hPa SW 16.1 km/h 33.8 km/h 46% 0 mm
19:04 6.6 °C -4.2 °C 1009.4 hPa WSW 17.7 km/h 41.8 km/h 46% 0 mm
19:09 6.6 °C -4.3 °C 1009.4 hPa West 12.9 km/h 32.2 km/h 46% 0 mm
19:14 6.6 °C -4.3 °C 1009.4 hPa West 14.5 km/h 32.2 km/h 46% 0 mm
19:19 6.7 °C -4.4 °C 1009.4 hPa West 16.1 km/h 29 km/h 45% 0 mm
19:24 6.7 °C -4.4 °C 1009.4 hPa West 14.5 km/h 29 km/h 45% 0 mm
19:29 6.8 °C -4.7 °C 1009.7 hPa West 14.5 km/h 29 km/h 44% 0 mm
19:34 6.7 °C -3.6 °C 1009.7 hPa WSW 14.5 km/h 29 km/h 48% 0 mm
19:39 6.1 °C -3.1 °C 1009.4 hPa WSW 12.9 km/h 29 km/h 52% 0 mm
19:44 5.9 °C -3.2 °C 1009.7 hPa WSW 14.5 km/h 29 km/h 52% 0 mm
19:49 5.8 °C -2.8 °C 1010 hPa NW 27.4 km/h 35.4 km/h 54% 0 mm
19:54 5.6 °C -2.6 °C 1009.7 hPa West 30.6 km/h 30.6 km/h 56% 0 mm
19:59 5.3 °C -2.5 °C 1010 hPa SW 17.7 km/h 30.6 km/h 57% 0 mm
20:04 5.2 °C -2.2 °C 1010 hPa WSW 11.3 km/h 32.2 km/h 59% 0 mm
20:09 4.9 °C -2.2 °C 1010 hPa WSW 17.7 km/h 33.8 km/h 60% 0 mm
20:14 4.8 °C -2.1 °C 1010.4 hPa SW 17.7 km/h 27.4 km/h 61% 0 mm
20:19 4.7 °C -1.8 °C 1010.4 hPa West 8 km/h 30.6 km/h 63% 0 mm
20:24 4.6 °C -1.8 °C 1010.4 hPa WSW 19.3 km/h 38.6 km/h 63% 0 mm
20:29 4.6 °C -1.7 °C 1010.4 hPa WSW 17.7 km/h 38.6 km/h 64% 0 mm
20:34 4.5 °C -1.7 °C 1010.4 hPa WSW 17.7 km/h 37 km/h 64% 0 mm
20:39 4.5 °C -1.7 °C 1010.4 hPa WSW 16.1 km/h 33.8 km/h 64% 0 mm
20:44 4.4 °C -2.2 °C 1010.4 hPa WSW 14.5 km/h 29 km/h 62% 0 mm
20:49 4.6 °C -2.5 °C 1010.4 hPa West 14.5 km/h 24.1 km/h 60% 0 mm
20:54 4.8 °C -2.6 °C 1010.4 hPa West 14.5 km/h 27.4 km/h 59% 0 mm
20:59 4.8 °C -2.7 °C 1010.4 hPa WSW 12.9 km/h 25.7 km/h 58% 0 mm
21:04 4.8 °C -2.7 °C 1010.7 hPa West 6.4 km/h 24.1 km/h 58% 0 mm
21:09 4.8 °C -3.1 °C 1010.7 hPa West 6.4 km/h 22.5 km/h 57% 0 mm
21:14 5 °C -3.3 °C 1010.7 hPa West 14.5 km/h 32.2 km/h 55% 0 mm
21:19 5.1 °C -3.4 °C 1011.1 hPa SW 12.9 km/h 24.1 km/h 54% 0 mm
21:24 5 °C -2.8 °C 1011.1 hPa WSW 9.7 km/h 25.7 km/h 57% 0 mm
21:29 4.8 °C -2.3 °C 1011.4 hPa WSW 14.5 km/h 27.4 km/h 60% 0 mm
21:34 4.7 °C -2.7 °C 1011.4 hPa WSW 14.5 km/h 27.4 km/h 59% 0 mm
21:39 4.7 °C -2.7 °C 1011.4 hPa WSW 12.9 km/h 25.7 km/h 59% 0 mm
21:44 4.5 °C -2.6 °C 1011.7 hPa WSW 9.7 km/h 25.7 km/h 60% 0 mm
21:49 4.2 °C -2 °C 1011.4 hPa WSW 8 km/h 16.1 km/h 64% 0 mm
21:54 4 °C -2 °C 1011.7 hPa WSW 9.7 km/h 16.1 km/h 65% 0 mm
21:59 4.1 °C -2.6 °C 1011.7 hPa West 3.2 km/h 17.7 km/h 62% 0 mm
22:04 4.2 °C -2.7 °C 1012.1 hPa West 8 km/h 22.5 km/h 61% 0 mm
22:09 4.3 °C -3.1 °C 1012.1 hPa SW 9.7 km/h 17.7 km/h 59% 0 mm
22:14 4.1 °C -2.7 °C 1012.1 hPa West 9.7 km/h 16.1 km/h 61% 0 mm
22:19 3.9 °C -2.3 °C 1012.1 hPa WSW 4.8 km/h 14.5 km/h 64% 0 mm
22:24 3.8 °C -2.2 °C 1012.1 hPa WSW 8 km/h 11.3 km/h 65% 0 mm
22:29 3.7 °C -2.3 °C 1012.1 hPa WSW 8 km/h 12.9 km/h 65% 0 mm
22:34 3.6 °C -2 °C 1012.1 hPa WSW 8 km/h 12.9 km/h 67% 0 mm
22:39 3.4 °C -1.9 °C 1012.1 hPa WSW 6.4 km/h 12.9 km/h 68% 0 mm
22:44 3.5 °C -1.8 °C 1012.1 hPa WSW 8 km/h 16.1 km/h 68% 0 mm
22:49 3.4 °C -2.1 °C 1012.1 hPa WSW 6.4 km/h 11.3 km/h 67% 0 mm
22:54 3.4 °C -2.1 °C 1012.1 hPa West 6.4 km/h 17.7 km/h 67% 0 mm
22:59 3.4 °C -2.2 °C 1012.1 hPa WSW 3.2 km/h 14.5 km/h 67% 0 mm
23:04 3.4 °C -2.3 °C 1012.4 hPa West 6.4 km/h 17.7 km/h 66% 0 mm
23:09 3.3 °C -2.2 °C 1012.4 hPa WSW 4.8 km/h 12.9 km/h 67% 0 mm
23:14 3.3 °C -2.1 °C 1012.1 hPa WSW 9.7 km/h 16.1 km/h 68% 0 mm
23:19 3.3 °C -2 °C 1012.4 hPa WSW 9.7 km/h 14.5 km/h 68% 0 mm
23:24 3.3 °C -2.2 °C 1012.4 hPa WSW 12.9 km/h 17.7 km/h 67% 0 mm
23:29 3.4 °C -2.1 °C 1012.4 hPa WSW 12.9 km/h 17.7 km/h 67% 0 mm
23:34 3.6 °C -2.4 °C 1012.4 hPa WSW 9.7 km/h 19.3 km/h 65% 0 mm
23:39 3.7 °C -2.5 °C 1012.4 hPa West 9.7 km/h 19.3 km/h 64% 0 mm
23:44 3.7 °C -2.9 °C 1012.1 hPa West 9.7 km/h 17.7 km/h 62% 0 mm
23:49 3.6 °C -3 °C 1012.1 hPa West 9.7 km/h 17.7 km/h 62% 0 mm
23:54 3.6 °C -3.2 °C 1012.4 hPa WNW 4.8 km/h 16.1 km/h 61% 0 mm
23:59 3.7 °C -3.4 °C 1012.4 hPa WNW 11.3 km/h 16.1 km/h 60% 0 mm
Buffalo, New York, USA
Compliments of Weather Underground - 2.5 mb